createdAt,value
2023-03-29T00:00:09.907Z,4.41
2023-03-29T00:01:09.890Z,4.41
2023-03-29T00:02:10.035Z,4.31
2023-03-29T00:03:09.980Z,4.37
2023-03-29T00:04:09.968Z,4.17
2023-03-29T00:05:09.881Z,4.34
2023-03-29T00:06:09.891Z,4.26
2023-03-29T00:07:09.896Z,4.28
2023-03-29T00:08:09.865Z,4.34
2023-03-29T00:09:10.037Z,4.30
2023-03-29T00:10:09.953Z,4.26
2023-03-29T00:11:09.952Z,4.23
2023-03-29T00:12:09.975Z,4.34
2023-03-29T00:13:10.595Z,4.32
2023-03-29T00:14:10.568Z,4.34
2023-03-29T00:15:09.960Z,4.37
2023-03-29T00:16:09.938Z,4.23
2023-03-29T00:17:09.890Z,4.26
2023-03-29T00:18:10.553Z,4.22
2023-03-29T00:19:09.977Z,4.35
2023-03-29T00:20:10.562Z,4.42
2023-03-29T00:21:09.892Z,4.41
2023-03-29T00:22:09.936Z,4.37
2023-03-29T00:23:09.888Z,4.32
2023-03-29T00:24:09.836Z,4.28
2023-03-29T00:25:09.790Z,4.32
2023-03-29T00:26:09.948Z,4.19
2023-03-29T00:27:09.862Z,4.19
2023-03-29T00:28:10.545Z,4.31
2023-03-29T00:29:09.794Z,4.30
2023-03-29T00:30:10.528Z,4.28
2023-03-29T00:31:09.949Z,4.22
2023-03-29T00:32:09.711Z,4.10
2023-03-29T00:33:09.943Z,4.12
2023-03-29T00:34:09.811Z,4.16
2023-03-29T00:35:09.665Z,4.08
2023-03-29T00:36:09.662Z,4.05
2023-03-29T00:37:09.835Z,4.04
2023-03-29T00:38:09.645Z,3.95
2023-03-29T00:39:09.672Z,4.12
2023-03-29T00:40:09.644Z,4.04
2023-03-29T00:41:09.640Z,4.16
2023-03-29T00:42:09.745Z,4.06
2023-03-29T00:43:09.616Z,4.23
2023-03-29T00:44:09.627Z,4.24
2023-03-29T00:45:09.628Z,4.26
2023-03-29T00:46:09.648Z,4.08
2023-03-29T00:47:09.609Z,4.12
2023-03-29T00:48:09.607Z,4.10
2023-03-29T00:49:09.631Z,4.06
2023-03-29T00:50:09.584Z,4.02
2023-03-29T00:51:10.540Z,4.10
2023-03-29T00:52:09.588Z,4.13
2023-03-29T00:53:09.557Z,4.06
2023-03-29T00:54:09.534Z,4.02
2023-03-29T00:55:09.531Z,3.87
2023-03-29T00:56:09.517Z,3.81
2023-03-29T00:57:09.585Z,3.86
2023-03-29T00:58:09.496Z,3.86
2023-03-29T00:59:09.531Z,3.87
2023-03-29T01:00:09.499Z,4.04
2023-03-29T01:01:09.482Z,3.99
2023-03-29T01:02:09.561Z,3.98
2023-03-29T01:03:09.510Z,3.92
2023-03-29T01:04:09.515Z,3.81
2023-03-29T01:05:09.473Z,3.92
2023-03-29T01:06:09.456Z,3.83
2023-03-29T01:07:09.533Z,3.86
2023-03-29T01:08:09.457Z,4.01
2023-03-29T01:09:09.438Z,3.98
2023-03-29T01:10:09.414Z,3.98
2023-03-29T01:11:09.409Z,3.94
2023-03-29T01:12:09.419Z,4.01
2023-03-29T01:13:09.457Z,3.99
2023-03-29T01:14:09.409Z,3.94
2023-03-29T01:15:09.388Z,3.87
2023-03-29T01:16:09.449Z,4.02
2023-03-29T01:17:09.382Z,4.04
2023-03-29T01:18:09.428Z,3.87
2023-03-29T01:19:09.388Z,3.86
2023-03-29T01:20:09.752Z,3.84
2023-03-29T01:21:09.360Z,4.04
2023-03-29T01:22:09.345Z,3.96
2023-03-29T01:23:09.358Z,3.99
2023-03-29T01:24:09.334Z,3.86
2023-03-29T01:25:09.336Z,3.98
2023-03-29T01:26:09.316Z,3.87
2023-03-29T01:27:09.337Z,3.91
2023-03-29T01:28:09.307Z,3.94
2023-03-29T01:29:09.314Z,3.91
2023-03-29T01:30:09.286Z,3.78
2023-03-29T01:31:09.276Z,3.80
2023-03-29T01:32:09.371Z,3.83
2023-03-29T01:33:09.273Z,3.98
2023-03-29T01:34:09.268Z,3.77
2023-03-29T01:35:09.254Z,3.92
2023-03-29T01:36:09.297Z,3.92
2023-03-29T01:37:09.275Z,3.78
2023-03-29T01:38:09.225Z,3.83
2023-03-29T01:39:09.247Z,3.84
2023-03-29T01:40:09.219Z,3.91
2023-03-29T01:41:09.203Z,4.02
2023-03-29T01:42:09.235Z,4.06
2023-03-29T01:43:09.190Z,4.01
2023-03-29T01:44:09.190Z,3.96
2023-03-29T01:45:09.187Z,3.95
2023-03-29T01:46:09.282Z,3.95
2023-03-29T01:47:09.200Z,3.94
2023-03-29T01:48:09.167Z,3.94
2023-03-29T01:49:09.171Z,3.95
2023-03-29T01:50:09.165Z,3.86
2023-03-29T01:51:09.147Z,3.86
2023-03-29T01:52:09.173Z,3.96
2023-03-29T01:53:09.138Z,3.95
2023-03-29T01:54:09.124Z,3.80
2023-03-29T01:55:09.123Z,3.88
2023-03-29T01:56:09.118Z,3.86
2023-03-29T01:57:09.129Z,3.92
2023-03-29T01:58:09.127Z,3.86
2023-03-29T01:59:09.093Z,3.96
2023-03-29T02:00:09.126Z,3.98
2023-03-29T02:01:09.116Z,3.95
2023-03-29T02:02:09.086Z,3.81
2023-03-29T02:03:09.221Z,3.91
2023-03-29T02:04:09.083Z,3.80
2023-03-29T02:05:09.062Z,3.91
2023-03-29T02:06:09.049Z,3.94
2023-03-29T02:07:09.050Z,3.88
2023-03-29T02:08:09.088Z,3.95
2023-03-29T02:09:09.039Z,3.92
2023-03-29T02:10:09.016Z,3.83
2023-03-29T02:11:09.030Z,3.95
2023-03-29T02:12:09.004Z,3.87
2023-03-29T02:13:09.036Z,3.87
2023-03-29T02:14:09.005Z,3.91
2023-03-29T02:15:09.001Z,3.92
2023-03-29T02:16:09.007Z,3.88
2023-03-29T02:17:08.975Z,3.80
2023-03-29T02:18:09.056Z,3.78
2023-03-29T02:19:08.965Z,3.81
2023-03-29T02:20:08.954Z,3.81
2023-03-29T02:21:08.942Z,3.94
2023-03-29T02:22:08.938Z,3.84
2023-03-29T02:23:08.983Z,3.80
2023-03-29T02:24:08.920Z,3.98
2023-03-29T02:25:08.938Z,3.78
2023-03-29T02:26:08.934Z,3.81
2023-03-29T02:27:08.914Z,3.83
2023-03-29T02:28:08.918Z,3.87
2023-03-29T02:29:08.894Z,3.80
2023-03-29T02:30:08.892Z,3.83
2023-03-29T02:31:08.921Z,3.81
2023-03-29T02:32:08.884Z,3.77
2023-03-29T02:33:08.986Z,3.96
2023-03-29T02:34:08.919Z,3.83
2023-03-29T02:35:09.004Z,3.84
2023-03-29T02:36:08.932Z,3.86
2023-03-29T02:37:08.829Z,3.87
2023-03-29T02:38:08.857Z,3.91
2023-03-29T02:39:08.875Z,3.95
2023-03-29T02:40:08.889Z,4.02
2023-03-29T02:41:08.859Z,3.95
2023-03-29T02:42:09.428Z,4.04
2023-03-29T02:43:10.541Z,3.87
2023-03-29T02:44:08.823Z,3.92
2023-03-29T02:45:08.815Z,3.88
2023-03-29T02:46:08.826Z,3.99
2023-03-29T02:47:08.893Z,3.86
2023-03-29T02:48:08.874Z,4.02
2023-03-29T02:49:09.437Z,3.81
2023-03-29T02:50:08.778Z,3.92
2023-03-29T02:51:08.813Z,3.96
2023-03-29T02:52:08.860Z,3.92
2023-03-29T02:53:08.978Z,4.01
2023-03-29T02:54:08.837Z,3.94
2023-03-29T02:55:09.432Z,3.88
2023-03-29T02:56:08.741Z,3.99
2023-03-29T02:57:08.951Z,3.91
2023-03-29T02:58:08.790Z,3.99
2023-03-29T02:59:08.773Z,3.88
2023-03-29T03:00:08.816Z,3.91
2023-03-29T03:01:08.799Z,4.01
2023-03-29T03:02:08.808Z,3.96
2023-03-29T03:03:08.911Z,3.87
2023-03-29T03:04:08.784Z,3.99
2023-03-29T03:05:08.732Z,3.92
2023-03-29T03:06:08.900Z,3.92
2023-03-29T03:07:08.781Z,3.95
2023-03-29T03:08:08.792Z,3.99
2023-03-29T03:09:08.622Z,4.02
2023-03-29T03:10:08.615Z,3.98
2023-03-29T03:11:08.610Z,3.95
2023-03-29T03:12:08.628Z,3.91
2023-03-29T03:13:08.603Z,3.95
2023-03-29T03:14:08.597Z,3.81
2023-03-29T03:15:08.789Z,3.87
2023-03-29T03:16:08.707Z,3.84
2023-03-29T03:17:08.593Z,3.83
2023-03-29T03:18:08.604Z,3.77
2023-03-29T03:19:08.541Z,3.95
2023-03-29T03:20:08.680Z,3.88
2023-03-29T03:21:08.598Z,3.94
2023-03-29T03:22:09.571Z,3.94
2023-03-29T03:23:08.659Z,3.92
2023-03-29T03:24:08.512Z,3.95
2023-03-29T03:25:08.515Z,4.05
2023-03-29T03:26:08.523Z,4.02
2023-03-29T03:27:08.512Z,3.99
2023-03-29T03:28:08.516Z,4.10
2023-03-29T03:29:08.518Z,4.05
2023-03-29T03:30:08.464Z,4.12
2023-03-29T03:31:08.468Z,4.16
2023-03-29T03:32:08.522Z,4.10
2023-03-29T03:33:08.470Z,4.19
2023-03-29T03:34:08.476Z,4.05
2023-03-29T03:35:08.469Z,4.12
2023-03-29T03:36:08.452Z,4.10
2023-03-29T03:37:08.419Z,4.14
2023-03-29T03:38:08.435Z,4.08
2023-03-29T03:39:08.423Z,4.14
2023-03-29T03:40:08.424Z,4.13
2023-03-29T03:41:08.399Z,4.10
2023-03-29T03:42:08.622Z,4.05
2023-03-29T03:43:08.399Z,4.10
2023-03-29T03:44:08.374Z,4.04
2023-03-29T03:45:08.366Z,4.01
2023-03-29T03:46:08.395Z,3.86
2023-03-29T03:47:08.384Z,4.06
2023-03-29T03:48:08.398Z,4.05
2023-03-29T03:49:08.355Z,3.98
2023-03-29T03:50:08.335Z,4.06
2023-03-29T03:51:08.316Z,4.05
2023-03-29T03:52:08.358Z,3.95
2023-03-29T03:53:08.349Z,3.99
2023-03-29T03:54:08.315Z,4.05
2023-03-29T03:55:08.300Z,4.06
2023-03-29T03:56:08.284Z,4.05
2023-03-29T03:57:08.333Z,3.91
2023-03-29T03:58:08.564Z,3.98
2023-03-29T03:59:08.268Z,4.12
2023-03-29T04:00:08.279Z,4.05
2023-03-29T04:01:08.261Z,3.99
2023-03-29T04:02:08.276Z,4.04
2023-03-29T04:03:08.452Z,4.08
2023-03-29T04:04:08.315Z,4.13
2023-03-29T04:05:08.262Z,4.16
2023-03-29T04:06:08.214Z,4.08
2023-03-29T04:07:08.223Z,4.08
2023-03-29T04:08:08.212Z,4.13
2023-03-29T04:09:08.191Z,4.06
2023-03-29T04:10:08.212Z,4.04
2023-03-29T04:11:08.250Z,4.05
2023-03-29T04:12:08.185Z,4.14
2023-03-29T04:13:08.200Z,4.02
2023-03-29T04:14:08.300Z,4.05
2023-03-29T04:15:08.174Z,4.13
2023-03-29T04:16:08.197Z,4.02
2023-03-29T04:17:08.141Z,4.06
2023-03-29T04:18:09.116Z,4.04
2023-03-29T04:19:08.149Z,4.12
2023-03-29T04:20:08.129Z,4.16
2023-03-29T04:21:08.135Z,4.19
2023-03-29T04:22:08.110Z,4.19
2023-03-29T04:23:08.120Z,4.13
2023-03-29T04:24:08.122Z,4.19
2023-03-29T04:25:08.112Z,4.12
2023-03-29T04:26:08.162Z,4.16
2023-03-29T04:27:08.084Z,4.19
2023-03-29T04:28:08.121Z,4.12
2023-03-29T04:29:08.097Z,4.12
2023-03-29T04:30:08.103Z,4.10
2023-03-29T04:31:08.150Z,4.06
2023-03-29T04:32:08.050Z,4.06
2023-03-29T04:33:08.089Z,4.08
2023-03-29T04:34:08.043Z,4.12
2023-03-29T04:35:08.095Z,4.01
2023-03-29T04:36:08.058Z,4.02
2023-03-29T04:37:08.009Z,4.05
2023-03-29T04:38:08.052Z,4.02
2023-03-29T04:39:07.994Z,4.14
2023-03-29T04:40:08.014Z,4.17
2023-03-29T04:41:07.990Z,4.16
2023-03-29T04:42:07.991Z,4.12
2023-03-29T04:43:08.020Z,4.06
2023-03-29T04:44:07.976Z,4.14
2023-03-29T04:45:08.041Z,4.12
2023-03-29T04:46:09.057Z,4.06
2023-03-29T04:47:07.952Z,4.14
2023-03-29T04:48:08.010Z,4.10
2023-03-29T04:49:07.934Z,4.14
2023-03-29T04:50:07.921Z,4.12
2023-03-29T04:51:07.915Z,4.24
2023-03-29T04:52:08.142Z,4.24
2023-03-29T04:53:07.921Z,4.14
2023-03-29T04:54:07.894Z,4.10
2023-03-29T04:55:07.931Z,4.12
2023-03-29T04:56:07.892Z,4.10
2023-03-29T04:57:07.915Z,4.19
2023-03-29T04:58:07.866Z,4.19
2023-03-29T04:59:07.882Z,4.20
2023-03-29T05:00:07.840Z,4.28
2023-03-29T05:01:08.928Z,4.28
2023-03-29T05:02:07.944Z,4.24
2023-03-29T05:03:07.900Z,4.35
2023-03-29T05:04:08.248Z,4.20
2023-03-29T05:05:07.833Z,4.35
2023-03-29T05:06:07.819Z,4.41
2023-03-29T05:07:07.818Z,4.38
2023-03-29T05:08:07.796Z,4.28
2023-03-29T05:09:07.985Z,4.35
2023-03-29T05:10:07.802Z,4.32
2023-03-29T05:11:07.801Z,4.28
2023-03-29T05:12:07.766Z,4.34
2023-03-29T05:13:07.765Z,4.41
2023-03-29T05:14:07.769Z,4.41
2023-03-29T05:15:07.766Z,4.44
2023-03-29T05:16:07.833Z,4.44
2023-03-29T05:17:07.783Z,4.41
2023-03-29T05:18:07.808Z,4.41
2023-03-29T05:19:07.720Z,4.37
2023-03-29T05:20:07.709Z,4.37
2023-03-29T05:21:07.726Z,4.49
2023-03-29T05:22:07.738Z,4.52
2023-03-29T05:23:07.690Z,4.49
2023-03-29T05:24:07.714Z,4.62
2023-03-29T05:25:07.694Z,4.66
2023-03-29T05:26:07.680Z,4.56
2023-03-29T05:27:07.684Z,4.53
2023-03-29T05:28:07.684Z,4.60
2023-03-29T05:29:07.677Z,4.58
2023-03-29T05:30:08.505Z,4.58
2023-03-29T05:31:07.730Z,4.66
2023-03-29T05:32:07.762Z,4.67
2023-03-29T05:33:07.757Z,4.68
2023-03-29T05:34:07.633Z,4.71
2023-03-29T05:35:07.650Z,4.67
2023-03-29T05:36:07.642Z,4.75
2023-03-29T05:37:07.595Z,4.60
2023-03-29T05:38:07.597Z,4.71
2023-03-29T05:39:07.603Z,4.74
2023-03-29T05:40:07.570Z,4.71
2023-03-29T05:41:07.567Z,4.67
2023-03-29T05:42:07.598Z,4.73
2023-03-29T05:43:07.561Z,4.62
2023-03-29T05:44:07.565Z,4.84
2023-03-29T05:45:07.554Z,4.68
2023-03-29T05:46:07.606Z,4.73
2023-03-29T05:47:07.531Z,4.87
2023-03-29T05:48:07.572Z,4.62
2023-03-29T05:49:07.523Z,4.67
2023-03-29T05:50:07.509Z,4.68
2023-03-29T05:51:07.504Z,4.66
2023-03-29T05:52:07.519Z,4.59
2023-03-29T05:53:07.489Z,4.63
2023-03-29T05:54:07.526Z,4.75
2023-03-29T05:55:07.467Z,4.80
2023-03-29T05:56:07.476Z,4.77
2023-03-29T05:57:07.502Z,4.84
2023-03-29T05:58:07.451Z,4.84
2023-03-29T05:59:07.440Z,4.86
2023-03-29T06:00:07.437Z,4.97
2023-03-29T06:01:07.421Z,4.92
2023-03-29T06:02:07.471Z,4.99
2023-03-29T06:03:17.977Z,5.02
2023-03-29T06:04:09.502Z,5.08
2023-03-29T06:05:07.484Z,5.08
2023-03-29T06:06:07.408Z,5.05
2023-03-29T06:07:07.380Z,5.14
2023-03-29T06:08:07.393Z,5.00
2023-03-29T06:09:07.390Z,5.18
2023-03-29T06:10:07.378Z,5.14
2023-03-29T06:11:07.588Z,5.14
2023-03-29T06:12:07.342Z,5.28
2023-03-29T06:13:07.343Z,5.23
2023-03-29T06:14:07.353Z,5.20
2023-03-29T06:15:07.325Z,5.17
2023-03-29T06:16:07.318Z,5.18
2023-03-29T06:17:07.368Z,5.15
2023-03-29T06:18:07.380Z,5.28
2023-03-29T06:19:07.313Z,5.26
2023-03-29T06:20:07.311Z,5.26
2023-03-29T06:21:07.599Z,5.23
2023-03-29T06:22:07.285Z,5.28
2023-03-29T06:23:07.274Z,5.30
2023-03-29T06:24:07.274Z,5.32
2023-03-29T06:25:07.258Z,5.28
2023-03-29T06:26:07.247Z,5.32
2023-03-29T06:27:07.243Z,5.39
2023-03-29T06:28:07.235Z,5.25
2023-03-29T06:29:07.232Z,5.33
2023-03-29T06:30:07.218Z,5.36
2023-03-29T06:31:07.351Z,5.43
2023-03-29T06:32:07.193Z,5.39
2023-03-29T06:33:07.224Z,5.41
2023-03-29T06:34:07.211Z,5.47
2023-03-29T06:35:07.176Z,5.46
2023-03-29T06:36:07.221Z,5.38
2023-03-29T06:37:07.159Z,5.43
2023-03-29T06:38:07.201Z,5.56
2023-03-29T06:39:07.431Z,5.62
2023-03-29T06:40:07.148Z,5.72
2023-03-29T06:41:07.145Z,5.66
2023-03-29T06:42:19.964Z,5.69
2023-03-29T06:43:09.135Z,5.66
2023-03-29T06:44:07.155Z,5.72
2023-03-29T06:45:07.117Z,5.69
2023-03-29T06:46:07.127Z,5.72
2023-03-29T06:47:07.094Z,5.79
2023-03-29T06:48:07.149Z,5.82
2023-03-29T06:49:07.116Z,5.86
2023-03-29T06:50:07.068Z,5.94
2023-03-29T06:51:07.144Z,5.91
2023-03-29T06:52:07.052Z,5.79
2023-03-29T06:53:08.072Z,6.04
2023-03-29T06:54:07.075Z,5.99
2023-03-29T06:55:07.044Z,5.93
2023-03-29T06:56:07.046Z,5.90
2023-03-29T06:57:07.078Z,5.99
2023-03-29T06:58:07.020Z,5.93
2023-03-29T06:59:07.035Z,6.05
2023-03-29T07:00:07.006Z,6.07
2023-03-29T07:01:07.208Z,5.99
2023-03-29T07:02:07.020Z,6.09
2023-03-29T07:03:07.235Z,6.11
2023-03-29T07:04:07.035Z,6.11
2023-03-29T07:05:06.959Z,6.22
2023-03-29T07:06:06.963Z,6.09
2023-03-29T07:07:06.957Z,6.30
2023-03-29T07:08:06.957Z,6.26
2023-03-29T07:09:06.970Z,6.38
2023-03-29T07:10:06.929Z,6.30
2023-03-29T07:11:07.947Z,6.33
2023-03-29T07:12:06.937Z,6.49
2023-03-29T07:13:06.907Z,6.45
2023-03-29T07:14:06.998Z,6.51
2023-03-29T07:15:06.910Z,6.72
2023-03-29T07:16:06.930Z,6.72
2023-03-29T07:17:06.903Z,6.81
2023-03-29T07:18:06.902Z,6.81
2023-03-29T07:19:06.889Z,6.79
2023-03-29T07:20:06.879Z,6.66
2023-03-29T07:21:06.868Z,6.87
2023-03-29T07:22:07.098Z,6.75
2023-03-29T07:23:06.891Z,6.81
2023-03-29T07:24:06.864Z,6.89
2023-03-29T07:25:06.817Z,7.03
2023-03-29T07:26:06.829Z,7.05
2023-03-29T07:27:06.812Z,7.02
2023-03-29T07:28:06.810Z,7.10
2023-03-29T07:29:06.815Z,7.13
2023-03-29T07:30:07.483Z,7.25
2023-03-29T07:31:06.837Z,7.24
2023-03-29T07:32:06.773Z,7.29
2023-03-29T07:33:06.855Z,7.40
2023-03-29T07:34:06.773Z,7.47
2023-03-29T07:35:06.755Z,7.40
2023-03-29T07:36:06.795Z,7.56
2023-03-29T07:37:06.741Z,7.69
2023-03-29T07:38:06.734Z,7.67
2023-03-29T07:39:06.745Z,7.31
2023-03-29T07:40:06.705Z,7.51
2023-03-29T07:41:06.733Z,7.67
2023-03-29T07:42:06.720Z,7.67
2023-03-29T07:43:06.693Z,7.85
2023-03-29T07:44:06.705Z,7.85
2023-03-29T07:45:06.688Z,7.91
2023-03-29T07:46:06.772Z,7.85
2023-03-29T07:47:06.659Z,7.82
2023-03-29T07:48:06.718Z,8.15
2023-03-29T07:49:06.700Z,8.09
2023-03-29T07:50:06.636Z,8.19
2023-03-29T07:51:06.629Z,8.28
2023-03-29T07:52:06.655Z,8.03
2023-03-29T07:53:06.620Z,8.09
2023-03-29T07:54:06.632Z,8.08
2023-03-29T07:55:06.626Z,8.00
2023-03-29T07:56:06.596Z,8.01
2023-03-29T07:57:06.636Z,8.08
2023-03-29T07:58:06.594Z,8.10
2023-03-29T07:59:06.651Z,7.91
2023-03-29T08:00:06.558Z,7.87
2023-03-29T08:01:07.098Z,7.91
2023-03-29T08:02:06.555Z,7.85
2023-03-29T08:03:06.643Z,7.75
2023-03-29T08:04:06.589Z,7.60
2023-03-29T08:05:06.667Z,7.56
2023-03-29T08:06:06.539Z,7.63
2023-03-29T08:07:06.533Z,7.53
2023-03-29T08:08:06.525Z,7.66
2023-03-29T08:09:06.504Z,7.72
2023-03-29T08:10:06.514Z,7.97
2023-03-29T08:11:06.498Z,7.70
2023-03-29T08:12:06.490Z,7.72
2023-03-29T08:13:06.487Z,7.66
2023-03-29T08:14:06.501Z,7.88
2023-03-29T08:15:06.499Z,7.95
2023-03-29T08:16:06.493Z,7.88
2023-03-29T08:17:06.506Z,8.06
2023-03-29T08:18:06.461Z,8.01
2023-03-29T08:19:06.438Z,7.91
2023-03-29T08:20:06.451Z,7.80
2023-03-29T08:21:06.436Z,7.83
2023-03-29T08:22:06.436Z,7.76
2023-03-29T08:23:06.431Z,7.77
2023-03-29T08:24:06.399Z,7.77
2023-03-29T08:25:06.409Z,7.77
2023-03-29T08:26:06.392Z,7.70
2023-03-29T08:27:06.394Z,7.69
2023-03-29T08:28:06.376Z,7.80
2023-03-29T08:29:06.365Z,8.13
2023-03-29T08:30:06.393Z,7.77
2023-03-29T08:31:06.406Z,7.85
2023-03-29T08:32:06.358Z,7.98
2023-03-29T08:33:06.396Z,7.93
2023-03-29T08:34:06.336Z,8.16
2023-03-29T08:35:06.485Z,8.19
2023-03-29T08:36:06.371Z,7.87
2023-03-29T08:37:06.316Z,7.90
2023-03-29T08:38:06.319Z,7.98
2023-03-29T08:39:06.316Z,7.94
2023-03-29T08:40:06.401Z,7.83
2023-03-29T08:41:06.298Z,8.16
2023-03-29T08:42:06.290Z,8.06
2023-03-29T08:43:06.302Z,8.06
2023-03-29T08:44:06.260Z,8.05
2023-03-29T08:45:06.271Z,8.18
2023-03-29T08:46:06.280Z,8.20
2023-03-29T08:47:06.251Z,8.19
2023-03-29T08:48:06.271Z,8.36
2023-03-29T08:49:06.226Z,8.13
2023-03-29T08:50:06.246Z,8.34
2023-03-29T08:51:07.971Z,8.05
2023-03-29T08:52:07.205Z,8.30
2023-03-29T08:53:06.212Z,8.33
2023-03-29T08:54:06.203Z,8.37
2023-03-29T08:55:06.201Z,8.16
2023-03-29T08:56:06.190Z,8.23
2023-03-29T08:57:06.196Z,8.12
2023-03-29T08:58:06.186Z,8.24
2023-03-29T08:59:06.177Z,8.31
2023-03-29T09:00:06.184Z,8.12
2023-03-29T09:01:06.231Z,8.31
2023-03-29T09:02:06.245Z,8.42
2023-03-29T09:03:06.207Z,8.30
2023-03-29T09:04:06.189Z,8.37
2023-03-29T09:05:06.147Z,8.44
2023-03-29T09:06:06.110Z,8.42
2023-03-29T09:07:06.109Z,8.51
2023-03-29T09:08:06.086Z,8.48
2023-03-29T09:09:06.095Z,8.60
2023-03-29T09:10:06.138Z,8.49
2023-03-29T09:11:06.114Z,8.46
2023-03-29T09:12:06.092Z,8.61
2023-03-29T09:13:06.136Z,8.74
2023-03-29T09:14:06.059Z,8.78
2023-03-29T09:15:06.064Z,8.56
2023-03-29T09:16:06.164Z,8.74
2023-03-29T09:17:06.024Z,8.58
2023-03-29T09:18:06.034Z,8.82
2023-03-29T09:19:06.044Z,8.92
2023-03-29T09:20:06.010Z,8.94
2023-03-29T09:21:05.995Z,9.18
2023-03-29T09:22:06.008Z,9.29
2023-03-29T09:23:05.994Z,8.88
2023-03-29T09:24:06.009Z,8.92
2023-03-29T09:25:06.005Z,9.00
2023-03-29T09:26:05.972Z,8.92
2023-03-29T09:27:05.955Z,9.02
2023-03-29T09:28:05.958Z,8.99
2023-03-29T09:29:07.714Z,8.91
2023-03-29T09:30:05.974Z,9.26
2023-03-29T09:31:05.982Z,8.95
2023-03-29T09:32:05.952Z,9.22
2023-03-29T09:33:05.969Z,9.08
2023-03-29T09:34:05.909Z,9.18
2023-03-29T09:35:05.915Z,9.29
2023-03-29T09:36:05.935Z,9.22
2023-03-29T09:37:05.885Z,9.31
2023-03-29T09:38:05.895Z,9.39
2023-03-29T09:39:05.906Z,9.47
2023-03-29T09:40:05.887Z,9.32
2023-03-29T09:41:06.068Z,9.34
2023-03-29T09:42:05.880Z,9.61
2023-03-29T09:43:05.835Z,9.54
2023-03-29T09:44:05.833Z,9.74
2023-03-29T09:45:05.867Z,9.99
2023-03-29T09:46:05.862Z,10.38
2023-03-29T09:47:05.822Z,10.48
2023-03-29T09:48:05.858Z,10.20
2023-03-29T09:49:05.802Z,10.40
2023-03-29T09:50:07.351Z,10.20
2023-03-29T09:51:05.806Z,10.12
2023-03-29T09:52:05.805Z,10.28
2023-03-29T09:53:05.775Z,10.23
2023-03-29T09:54:05.762Z,10.33
2023-03-29T09:55:05.769Z,10.69
2023-03-29T09:56:05.774Z,10.75
2023-03-29T09:57:05.763Z,10.78
2023-03-29T09:58:05.744Z,10.25
2023-03-29T09:59:05.733Z,10.35
2023-03-29T10:00:05.764Z,10.69
2023-03-29T10:01:05.980Z,10.75
2023-03-29T10:02:05.722Z,10.84
2023-03-29T10:03:06.574Z,10.71
2023-03-29T10:04:05.766Z,10.48
2023-03-29T10:05:05.687Z,10.49
2023-03-29T10:06:05.703Z,10.56
2023-03-29T10:07:05.697Z,10.82
2023-03-29T10:08:05.693Z,10.49
2023-03-29T10:09:05.657Z,10.07
2023-03-29T10:10:05.652Z,10.40
2023-03-29T10:11:05.691Z,10.56
2023-03-29T10:12:05.618Z,10.51
2023-03-29T10:13:05.624Z,10.79
2023-03-29T10:14:05.636Z,10.78
2023-03-29T10:15:05.871Z,10.61
2023-03-29T10:16:05.673Z,10.51
2023-03-29T10:17:05.639Z,10.63
2023-03-29T10:18:05.653Z,10.38
2023-03-29T10:19:05.610Z,10.26
2023-03-29T10:20:06.435Z,10.30
2023-03-29T10:21:05.797Z,10.57
2023-03-29T10:22:05.571Z,10.41
2023-03-29T10:23:05.548Z,10.75
2023-03-29T10:24:05.546Z,10.78
2023-03-29T10:25:05.583Z,10.94
2023-03-29T10:26:05.576Z,10.96
2023-03-29T10:27:05.530Z,10.99
2023-03-29T10:28:05.547Z,10.96
2023-03-29T10:29:05.524Z,11.12
2023-03-29T10:30:05.510Z,11.23
2023-03-29T10:31:05.694Z,11.23
2023-03-29T10:32:05.577Z,11.08
2023-03-29T10:33:05.531Z,11.04
2023-03-29T10:34:05.518Z,11.23
2023-03-29T10:35:05.484Z,11.51
2023-03-29T10:36:05.545Z,11.08
2023-03-29T10:37:05.509Z,11.25
2023-03-29T10:38:05.453Z,11.59
2023-03-29T10:39:06.193Z,11.60
2023-03-29T10:40:05.462Z,11.81
2023-03-29T10:41:05.489Z,12.06
2023-03-29T10:42:05.436Z,11.73
2023-03-29T10:43:05.420Z,11.84
2023-03-29T10:44:05.427Z,11.87
2023-03-29T10:45:05.408Z,11.66
2023-03-29T10:46:06.457Z,12.13
2023-03-29T10:47:05.388Z,12.25
2023-03-29T10:48:05.451Z,11.78
2023-03-29T10:49:05.396Z,11.36
2023-03-29T10:50:05.407Z,11.11
2023-03-29T10:51:05.556Z,11.35
2023-03-29T10:52:05.357Z,11.52
2023-03-29T10:53:05.349Z,11.62
2023-03-29T10:54:05.336Z,11.32
2023-03-29T10:55:05.366Z,11.32
2023-03-29T10:56:05.340Z,11.43
2023-03-29T10:57:05.382Z,11.55
2023-03-29T10:58:05.310Z,11.40
2023-03-29T10:59:05.319Z,11.48
2023-03-29T11:00:05.297Z,11.66
2023-03-29T11:01:05.726Z,11.72
2023-03-29T11:02:05.326Z,11.97
2023-03-29T11:03:05.398Z,12.06
2023-03-29T11:04:05.347Z,12.20
2023-03-29T11:05:05.258Z,12.13
2023-03-29T11:06:05.274Z,11.91
2023-03-29T11:07:05.256Z,11.80
2023-03-29T11:08:05.246Z,11.69
2023-03-29T11:09:05.241Z,11.37
2023-03-29T11:10:05.255Z,11.08
2023-03-29T11:11:05.414Z,10.93
2023-03-29T11:12:15.453Z,11.10
2023-03-29T11:13:07.214Z,11.08
2023-03-29T11:14:05.200Z,11.00
2023-03-29T11:15:05.187Z,11.47
2023-03-29T11:16:05.226Z,11.54
2023-03-29T11:17:05.209Z,11.63
2023-03-29T11:18:05.209Z,11.81
2023-03-29T11:19:05.165Z,11.80
2023-03-29T11:20:05.429Z,12.20
2023-03-29T11:21:10.350Z,12.27
2023-03-29T11:22:06.142Z,12.07
2023-03-29T11:23:05.150Z,12.09
2023-03-29T11:24:05.141Z,12.39
2023-03-29T11:25:05.166Z,12.49
2023-03-29T11:26:05.130Z,13.03
2023-03-29T11:27:05.104Z,13.47
2023-03-29T11:28:05.096Z,13.60
2023-03-29T11:29:05.090Z,12.86
2023-03-29T11:30:05.100Z,12.87
2023-03-29T11:31:05.487Z,12.60
2023-03-29T11:32:05.208Z,12.78
2023-03-29T11:33:05.223Z,12.72
2023-03-29T11:34:05.087Z,12.46
2023-03-29T11:35:05.044Z,12.20
2023-03-29T11:36:05.120Z,11.90
2023-03-29T11:37:05.036Z,12.21
2023-03-29T11:38:05.021Z,12.32
2023-03-29T11:39:05.047Z,12.65
2023-03-29T11:40:05.002Z,12.32
2023-03-29T11:41:05.152Z,12.35
2023-03-29T11:42:04.999Z,12.62
2023-03-29T11:43:05.030Z,12.70
2023-03-29T11:44:04.978Z,12.72
2023-03-29T11:45:04.991Z,12.61
2023-03-29T11:46:05.021Z,12.37
2023-03-29T11:47:05.036Z,12.45
2023-03-29T11:48:04.975Z,12.60
2023-03-29T11:49:04.959Z,12.42
2023-03-29T11:50:04.986Z,12.64
2023-03-29T11:51:04.989Z,12.57
2023-03-29T11:52:04.921Z,12.35
2023-03-29T11:53:04.919Z,12.58
2023-03-29T11:54:04.916Z,12.65
2023-03-29T11:55:04.902Z,12.80
2023-03-29T11:56:04.911Z,12.65
2023-03-29T11:57:04.922Z,12.80
2023-03-29T11:58:04.897Z,12.80
2023-03-29T11:59:04.859Z,12.76
2023-03-29T12:00:05.894Z,12.65
2023-03-29T12:01:04.936Z,12.72
2023-03-29T12:02:04.880Z,12.61
2023-03-29T12:03:04.912Z,12.58
2023-03-29T12:04:04.930Z,12.45
2023-03-29T12:05:04.835Z,12.47
2023-03-29T12:06:04.831Z,12.75
2023-03-29T12:07:04.807Z,12.97
2023-03-29T12:08:04.802Z,12.76
2023-03-29T12:09:04.800Z,13.01
2023-03-29T12:10:04.798Z,12.95
2023-03-29T12:11:05.099Z,13.22
2023-03-29T12:12:04.772Z,12.78
2023-03-29T12:13:04.755Z,13.01
2023-03-29T12:14:04.744Z,12.95
2023-03-29T12:15:04.770Z,13.18
2023-03-29T12:16:04.806Z,13.22
2023-03-29T12:17:05.644Z,13.38
2023-03-29T12:18:04.758Z,13.49
2023-03-29T12:19:04.709Z,14.22
2023-03-29T12:20:04.699Z,14.65
2023-03-29T12:21:04.820Z,14.37
2023-03-29T12:22:04.694Z,13.56
2023-03-29T12:23:04.700Z,13.13
2023-03-29T12:24:04.680Z,13.54
2023-03-29T12:25:04.676Z,13.72
2023-03-29T12:26:04.695Z,13.78
2023-03-29T12:27:04.668Z,13.25
2023-03-29T12:28:04.640Z,13.44
2023-03-29T12:29:04.639Z,13.41
2023-03-29T12:30:04.657Z,13.19
2023-03-29T12:31:04.890Z,13.13
2023-03-29T12:32:04.741Z,13.16
2023-03-29T12:33:04.663Z,13.12
2023-03-29T12:34:04.660Z,13.18
2023-03-29T12:35:04.614Z,13.46
2023-03-29T12:36:04.645Z,13.28
2023-03-29T12:37:04.622Z,13.18
2023-03-29T12:38:04.622Z,13.35
2023-03-29T12:39:04.583Z,13.71
2023-03-29T12:40:04.607Z,13.42
2023-03-29T12:41:04.799Z,13.33
2023-03-29T12:42:04.567Z,13.78
2023-03-29T12:43:04.560Z,14.05
2023-03-29T12:44:04.544Z,13.62
2023-03-29T12:45:04.562Z,13.52
2023-03-29T12:46:04.846Z,13.79
2023-03-29T12:47:04.539Z,13.74
2023-03-29T12:48:04.624Z,14.35
2023-03-29T12:49:04.506Z,14.55
2023-03-29T12:50:04.673Z,15.80
2023-03-29T12:51:04.529Z,15.42
2023-03-29T12:52:04.520Z,14.58
2023-03-29T12:53:04.491Z,13.79
2023-03-29T12:54:04.476Z,13.57
2023-03-29T12:55:04.490Z,13.53
2023-03-29T12:56:04.667Z,13.74
2023-03-29T12:57:04.526Z,13.83
2023-03-29T12:58:04.468Z,14.11
2023-03-29T12:59:04.440Z,14.18
2023-03-29T13:00:04.514Z,14.45
2023-03-29T13:01:05.802Z,14.25
2023-03-29T13:02:05.826Z,13.56
2023-03-29T13:03:04.582Z,13.37
2023-03-29T13:04:04.766Z,13.50
2023-03-29T13:05:04.458Z,13.57
2023-03-29T13:06:04.591Z,13.31
2023-03-29T13:07:05.752Z,13.19
2023-03-29T13:08:06.309Z,13.54
2023-03-29T13:09:05.891Z,13.78
2023-03-29T13:10:04.562Z,13.75
2023-03-29T13:11:05.544Z,13.63